sensor_id;sensor_type;location;lat;lon;timestamp;temperature;humidity
65995;HTU21D;52764;51.036;5.852;2023-01-13T00:01:23;12.16;82.11
65995;HTU21D;52764;51.036;5.852;2023-01-13T00:03:50;12.19;81.84
65995;HTU21D;52764;51.036;5.852;2023-01-13T00:06:18;12.20;81.31
65995;HTU21D;52764;51.036;5.852;2023-01-13T00:08:50;12.22;80.39
65995;HTU21D;52764;51.036;5.852;2023-01-13T00:11:17;12.21;79.61
65995;HTU21D;52764;51.036;5.852;2023-01-13T00:13:43;12.22;79.30
65995;HTU21D;52764;51.036;5.852;2023-01-13T00:16:12;12.22;79.11
65995;HTU21D;52764;51.036;5.852;2023-01-13T00:18:40;12.23;78.95
65995;HTU21D;52764;51.036;5.852;2023-01-13T00:21:18;12.29;78.80
65995;HTU21D;52764;51.036;5.852;2023-01-13T00:23:45;12.28;78.72
65995;HTU21D;52764;51.036;5.852;2023-01-13T00:26:19;12.28;78.90
65995;HTU21D;52764;51.036;5.852;2023-01-13T00:28:46;12.28;78.86
65995;HTU21D;52764;51.036;5.852;2023-01-13T00:31:17;12.26;78.68
65995;HTU21D;52764;51.036;5.852;2023-01-13T00:33:43;2.91;78.33
65995;HTU21D;52764;51.036;5.852;2023-01-13T00:36:12;12.25;78.05
65995;HTU21D;52764;51.036;5.852;2023-01-13T00:38:38;12.25;77.53
65995;HTU21D;52764;51.036;5.852;2023-01-13T00:41:07;12.28;76.92
65995;HTU21D;52764;51.036;5.852;2023-01-13T00:43:34;12.29;76.24
65995;HTU21D;52764;51.036;5.852;2023-01-13T00:46:01;12.27;75.87
65995;HTU21D;52764;51.036;5.852;2023-01-13T00:48:27;12.22;75.69
65995;HTU21D;52764;51.036;5.852;2023-01-13T00:50:58;12.19;75.44
65995;HTU21D;52764;51.036;5.852;2023-01-13T00:53:25;12.17;75.18
65995;HTU21D;52764;51.036;5.852;2023-01-13T00:56:26;12.14;74.89
65995;HTU21D;52764;51.036;5.852;2023-01-13T00:58:52;12.14;74.61
65995;HTU21D;52764;51.036;5.852;2023-01-13T01:01:20;12.14;74.44
65995;HTU21D;52764;51.036;5.852;2023-01-13T01:03:48;12.15;74.21
65995;HTU21D;52764;51.036;5.852;2023-01-13T01:06:23;12.17;74.36
65995;HTU21D;52764;51.036;5.852;2023-01-13T01:08:49;12.19;74.13
65995;HTU21D;52764;51.036;5.852;2023-01-13T01:11:21;12.19;73.87
65995;HTU21D;52764;51.036;5.852;2023-01-13T01:13:47;12.18;73.91
65995;HTU21D;52764;51.036;5.852;2023-01-13T01:16:15;12.17;73.84
65995;HTU21D;52764;51.036;5.852;2023-01-13T01:18:44;12.08;73.51
65995;HTU21D;52764;51.036;5.852;2023-01-13T01:21:12;11.98;73.57
65995;HTU21D;52764;51.036;5.852;2023-01-13T01:23:39;11.90;74.77
65995;HTU21D;52764;51.036;5.852;2023-01-13T01:26:10;11.83;73.49
65995;HTU21D;52764;51.036;5.852;2023-01-13T01:28:37;11.83;73.35
65995;HTU21D;52764;51.036;5.852;2023-01-13T01:31:11;11.86;73.44
65995;HTU21D;52764;51.036;5.852;2023-01-13T01:33:37;11.83;72.57
65995;HTU21D;52764;51.036;5.852;2023-01-13T01:36:06;11.76;71.19
65995;HTU21D;52764;51.036;5.852;2023-01-13T01:38:32;11.71;70.28
65995;HTU21D;52764;51.036;5.852;2023-01-13T01:40:58;11.63;69.57
65995;HTU21D;52764;51.036;5.852;2023-01-13T01:46:26;11.42;68.36
65995;HTU21D;52764;51.036;5.852;2023-01-13T01:48:56;11.25;68.47
65995;HTU21D;52764;51.036;5.852;2023-01-13T01:51:23;11.15;68.52
65995;HTU21D;52764;51.036;5.852;2023-01-13T01:53:51;11.39;68.50
65995;HTU21D;52764;51.036;5.852;2023-01-13T01:56:19;11.03;68.63
65995;HTU21D;52764;51.036;5.852;2023-01-13T01:58:49;11.00;68.73
65995;HTU21D;52764;51.036;5.852;2023-01-13T02:01:16;10.97;80.89
65995;HTU21D;52764;51.036;5.852;2023-01-13T02:03:49;10.94;68.75
65995;HTU21D;52764;51.036;5.852;2023-01-13T02:06:17;10.90;69.00
65995;HTU21D;52764;51.036;5.852;2023-01-13T02:08:43;10.85;68.55
65995;HTU21D;52764;51.036;5.852;2023-01-13T02:11:26;10.81;69.22
65995;HTU21D;52764;51.036;5.852;2023-01-13T02:14:12;10.78;69.22
65995;HTU21D;52764;51.036;5.852;2023-01-13T02:16:46;10.75;69.30
65995;HTU21D;52764;51.036;5.852;2023-01-13T02:19:39;10.71;69.33
65995;HTU21D;52764;51.036;5.852;2023-01-13T02:22:24;13.34;69.63
65995;HTU21D;52764;51.036;5.852;2023-01-13T02:30:50;10.63;70.00
65995;HTU21D;52764;51.036;5.852;2023-01-13T02:34:06;10.60;70.41
65995;HTU21D;52764;51.036;5.852;2023-01-13T02:36:49;10.63;70.57
65995;HTU21D;52764;51.036;5.852;2023-01-13T02:39:37;10.62;70.98
65995;HTU21D;52764;51.036;5.852;2023-01-13T02:42:18;10.65;71.03
65995;HTU21D;52764;51.036;5.852;2023-01-13T02:45:31;10.53;71.55
65995;HTU21D;52764;51.036;5.852;2023-01-13T02:48:00;10.51;71.45
65995;HTU21D;52764;51.036;5.852;2023-01-13T02:51:06;10.59;71.57
65995;HTU21D;52764;51.036;5.852;2023-01-13T02:53:34;10.58;71.78
65995;HTU21D;52764;51.036;5.852;2023-01-13T02:56:05;10.57;71.76
65995;HTU21D;52764;51.036;5.852;2023-01-13T02:58:34;10.54;72.01
65995;HTU21D;52764;51.036;5.852;2023-01-13T03:01:00;10.52;72.12
65995;HTU21D;52764;51.036;5.852;2023-01-13T03:03:26;10.51;72.15
65995;HTU21D;52764;51.036;5.852;2023-01-13T03:06:16;10.49;72.19
65995;HTU21D;52764;51.036;5.852;2023-01-13T03:08:58;10.45;72.13
65995;HTU21D;52764;51.036;5.852;2023-01-13T03:11:35;10.44;72.22
65995;HTU21D;52764;51.036;5.852;2023-01-13T03:14:12;10.42;72.25
65995;HTU21D;52764;51.036;5.852;2023-01-13T03:16:52;10.41;72.11
65995;HTU21D;52764;51.036;5.852;2023-01-13T03:22:17;10.34;72.15
65995;HTU21D;52764;51.036;5.852;2023-01-13T03:27:41;10.40;72.32
65995;HTU21D;52764;51.036;5.852;2023-01-13T03:30:24;10.37;72.38
65995;HTU21D;52764;51.036;5.852;2023-01-13T03:33:02;10.39;72.62
65995;HTU21D;52764;51.036;5.852;2023-01-13T03:35:36;10.35;57.27
65995;HTU21D;52764;51.036;5.852;2023-01-13T03:38:12;10.33;72.44
65995;HTU21D;52764;51.036;5.852;2023-01-13T03:40:57;10.30;72.34
65995;HTU21D;52764;51.036;5.852;2023-01-13T03:43:29;10.35;72.62
65995;HTU21D;52764;51.036;5.852;2023-01-13T03:46:25;10.40;72.71
65995;HTU21D;52764;51.036;5.852;2023-01-13T03:48:56;10.46;72.57
65995;HTU21D;52764;51.036;5.852;2023-01-13T03:51:28;10.53;72.46
65995;HTU21D;52764;51.036;5.852;2023-01-13T03:53:59;10.59;72.32
65995;HTU21D;52764;51.036;5.852;2023-01-13T03:56:35;10.65;72.26
65995;HTU21D;52764;51.036;5.852;2023-01-13T03:59:06;10.69;72.04
65995;HTU21D;52764;51.036;5.852;2023-01-13T04:01:45;10.68;72.17
65995;HTU21D;52764;51.036;5.852;2023-01-13T04:04:22;10.71;71.93
65995;HTU21D;52764;51.036;5.852;2023-01-13T04:09:55;10.72;71.74
65995;HTU21D;52764;51.036;5.852;2023-01-13T04:12:28;10.75;71.84
65995;HTU21D;52764;51.036;5.852;2023-01-13T04:15:13;10.78;71.71
65995;HTU21D;52764;51.036;5.852;2023-01-13T04:17:39;10.82;71.50
65995;HTU21D;52764;51.036;5.852;2023-01-13T04:20:06;10.83;71.19
65995;HTU21D;52764;51.036;5.852;2023-01-13T04:22:31;10.96;71.09
65995;HTU21D;52764;51.036;5.852;2023-01-13T04:24:57;10.93;71.13
65995;HTU21D;52764;51.036;5.852;2023-01-13T04:27:23;10.96;70.92
65995;HTU21D;52764;51.036;5.852;2023-01-13T04:29:48;10.97;71.19
65995;HTU21D;52764;51.036;5.852;2023-01-13T04:32:14;10.98;71.06
65995;HTU21D;52764;51.036;5.852;2023-01-13T04:34:40;10.98;71.00
65995;HTU21D;52764;51.036;5.852;2023-01-13T04:37:05;10.96;70.96
65995;HTU21D;52764;51.036;5.852;2023-01-13T04:39:31;10.94;70.87
65995;HTU21D;52764;51.036;5.852;2023-01-13T04:41:57;10.89;70.64
65995;HTU21D;52764;51.036;5.852;2023-01-13T04:44:22;10.79;70.67
65995;HTU21D;52764;51.036;5.852;2023-01-13T04:46:48;10.72;71.00
65995;HTU21D;52764;51.036;5.852;2023-01-13T04:49:14;10.64;71.07
65995;HTU21D;52764;51.036;5.852;2023-01-13T04:51:39;10.57;71.26
65995;HTU21D;52764;51.036;5.852;2023-01-13T04:54:05;10.51;71.31
65995;HTU21D;52764;51.036;5.852;2023-01-13T04:56:31;10.45;71.46
65995;HTU21D;52764;51.036;5.852;2023-01-13T04:58:56;10.43;71.69
65995;HTU21D;52764;51.036;5.852;2023-01-13T05:01:22;10.42;71.79
65995;HTU21D;52764;51.036;5.852;2023-01-13T05:03:48;10.42;71.87
65995;HTU21D;52764;51.036;5.852;2023-01-13T05:06:14;10.41;71.81
65995;HTU21D;52764;51.036;5.852;2023-01-13T05:08:39;10.43;71.77
65995;HTU21D;52764;51.036;5.852;2023-01-13T05:11:05;10.46;71.64
65995;HTU21D;52764;51.036;5.852;2023-01-13T05:13:51;10.50;71.44
65995;HTU21D;52764;51.036;5.852;2023-01-13T05:16:35;10.49;71.38
65995;HTU21D;52764;51.036;5.852;2023-01-13T05:19:19;10.49;71.21
65995;HTU21D;52764;51.036;5.852;2023-01-13T05:21:45;10.49;71.15
65995;HTU21D;52764;51.036;5.852;2023-01-13T05:24:29;10.51;70.88
65995;HTU21D;52764;51.036;5.852;2023-01-13T05:27:14;1.99;70.96
65995;HTU21D;52764;51.036;5.852;2023-01-13T05:29:39;10.52;70.90
65995;HTU21D;52764;51.036;5.852;2023-01-13T05:32:05;10.51;70.85
65995;HTU21D;52764;51.036;5.852;2023-01-13T05:34:33;10.54;70.95
65995;HTU21D;52764;51.036;5.852;2023-01-13T05:36:59;10.56;70.75
65995;HTU21D;52764;51.036;5.852;2023-01-13T05:39:26;10.58;70.74
65995;HTU21D;52764;51.036;5.852;2023-01-13T05:41:52;10.62;70.55
65995;HTU21D;52764;51.036;5.852;2023-01-13T05:44:36;10.58;70.52
65995;HTU21D;52764;51.036;5.852;2023-01-13T05:47:02;10.56;70.46
65995;HTU21D;52764;51.036;5.852;2023-01-13T05:49:28;10.53;70.64
65995;HTU21D;52764;51.036;5.852;2023-01-13T05:51:53;10.54;70.55
65995;HTU21D;52764;51.036;5.852;2023-01-13T05:54:19;10.52;70.62
65995;HTU21D;52764;51.036;5.852;2023-01-13T05:56:45;10.53;70.92
65995;HTU21D;52764;51.036;5.852;2023-01-13T05:59:10;10.54;70.97
65995;HTU21D;52764;51.036;5.852;2023-01-13T06:01:36;10.54;70.97
65995;HTU21D;52764;51.036;5.852;2023-01-13T06:04:02;10.44;71.32
65995;HTU21D;52764;51.036;5.852;2023-01-13T06:06:27;10.40;71.64
65995;HTU21D;52764;51.036;5.852;2023-01-13T06:08:53;10.40;71.77
65995;HTU21D;52764;51.036;5.852;2023-01-13T06:11:18;10.36;71.89
65995;HTU21D;52764;51.036;5.852;2023-01-13T06:13:44;10.31;71.97
65995;HTU21D;52764;51.036;5.852;2023-01-13T06:16:10;10.31;71.89
65995;HTU21D;52764;51.036;5.852;2023-01-13T06:18:36;10.29;71.66
65995;HTU21D;52764;51.036;5.852;2023-01-13T06:21:02;10.29;71.38
65995;HTU21D;52764;51.036;5.852;2023-01-13T06:23:27;10.28;71.17
65995;HTU21D;52764;51.036;5.852;2023-01-13T06:26:04;10.24;70.86
65995;HTU21D;52764;51.036;5.852;2023-01-13T06:28:32;10.22;70.74
65995;HTU21D;52764;51.036;5.852;2023-01-13T06:31:03;10.15;70.80
65995;HTU21D;52764;51.036;5.852;2023-01-13T06:33:42;10.10;70.87
65995;HTU21D;52764;51.036;5.852;2023-01-13T06:36:20;10.03;71.17
65995;HTU21D;52764;51.036;5.852;2023-01-13T06:38:52;9.98;71.27
65995;HTU21D;52764;51.036;5.852;2023-01-13T06:41:20;-21.07;71.25
65995;HTU21D;52764;51.036;5.852;2023-01-13T06:44:08;9.91;71.48
65995;HTU21D;52764;51.036;5.852;2023-01-13T06:46:34;9.80;71.50
65995;HTU21D;52764;51.036;5.852;2023-01-13T06:49:00;9.84;71.68
65995;HTU21D;52764;51.036;5.852;2023-01-13T06:51:26;9.81;71.72
65995;HTU21D;52764;51.036;5.852;2023-01-13T06:53:52;9.80;71.90
65995;HTU21D;52764;51.036;5.852;2023-01-13T06:56:17;3.94;71.93
65995;HTU21D;52764;51.036;5.852;2023-01-13T06:58:43;9.83;71.69
65995;HTU21D;52764;51.036;5.852;2023-01-13T07:01:09;9.81;71.57
65995;HTU21D;52764;51.036;5.852;2023-01-13T07:03:34;9.82;71.52
65995;HTU21D;52764;51.036;5.852;2023-01-13T07:06:00;9.75;71.63
65995;HTU21D;52764;51.036;5.852;2023-01-13T07:08:26;9.74;71.71
65995;HTU21D;52764;51.036;5.852;2023-01-13T07:10:53;9.70;71.83
65995;HTU21D;52764;51.036;5.852;2023-01-13T07:13:19;9.70;72.02
65995;HTU21D;52764;51.036;5.852;2023-01-13T07:16:05;9.72;72.15
65995;HTU21D;52764;51.036;5.852;2023-01-13T07:18:32;9.74;72.23
65995;HTU21D;52764;51.036;5.852;2023-01-13T07:21:03;9.75;72.29
65995;HTU21D;52764;51.036;5.852;2023-01-13T07:23:32;9.76;72.26
65995;HTU21D;52764;51.036;5.852;2023-01-13T07:25:58;9.75;72.22
65995;HTU21D;52764;51.036;5.852;2023-01-13T07:28:25;9.72;72.25
65995;HTU21D;52764;51.036;5.852;2023-01-13T07:30:51;9.71;72.36
65995;HTU21D;52764;51.036;5.852;2023-01-13T07:33:17;9.69;72.46
65995;HTU21D;52764;51.036;5.852;2023-01-13T07:35:53;9.67;72.64
65995;HTU21D;52764;51.036;5.852;2023-01-13T07:38:19;9.65;72.84
65995;HTU21D;52764;51.036;5.852;2023-01-13T07:40:45;9.65;72.76
65995;HTU21D;52764;51.036;5.852;2023-01-13T07:43:12;9.62;73.06
65995;HTU21D;52764;51.036;5.852;2023-01-13T07:48:24;9.65;73.52
65995;HTU21D;52764;51.036;5.852;2023-01-13T07:50:49;9.72;73.49
65995;HTU21D;52764;51.036;5.852;2023-01-13T07:53:16;9.75;73.44
65995;HTU21D;52764;51.036;5.852;2023-01-13T07:55:42;9.74;73.56
65995;HTU21D;52764;51.036;5.852;2023-01-13T07:58:09;9.70;73.54
65995;HTU21D;52764;51.036;5.852;2023-01-13T08:00:36;9.70;73.61
65995;HTU21D;52764;51.036;5.852;2023-01-13T08:03:01;9.72;73.52
65995;HTU21D;52764;51.036;5.852;2023-01-13T08:05:27;9.76;73.57
65995;HTU21D;52764;51.036;5.852;2023-01-13T08:07:53;9.77;73.44
65995;HTU21D;52764;51.036;5.852;2023-01-13T08:10:19;9.76;73.31
65995;HTU21D;52764;51.036;5.852;2023-01-13T08:12:44;9.70;73.37
65995;HTU21D;52764;51.036;5.852;2023-01-13T08:15:30;9.70;73.42
65995;HTU21D;52764;51.036;5.852;2023-01-13T08:17:56;9.70;73.44
65995;HTU21D;52764;51.036;5.852;2023-01-13T08:20:24;9.75;73.44
65995;HTU21D;52764;51.036;5.852;2023-01-13T08:22:50;9.79;73.56
65995;HTU21D;52764;51.036;5.852;2023-01-13T08:25:16;9.91;73.29
65995;HTU21D;52764;51.036;5.852;2023-01-13T08:27:42;9.98;73.06
65995;HTU21D;52764;51.036;5.852;2023-01-13T08:30:08;10.07;72.62
65995;HTU21D;52764;51.036;5.852;2023-01-13T08:32:34;10.11;71.98
65995;HTU21D;52764;51.036;5.852;2023-01-13T08:35:00;10.18;72.12
65995;HTU21D;52764;51.036;5.852;2023-01-13T08:37:25;10.19;71.90
65995;HTU21D;52764;51.036;5.852;2023-01-13T08:39:51;10.26;71.71
65995;HTU21D;52764;51.036;5.852;2023-01-13T08:42:16;10.23;71.59
65995;HTU21D;52764;51.036;5.852;2023-01-13T08:44:42;10.22;71.57
65995;HTU21D;52764;51.036;5.852;2023-01-13T08:47:08;10.18;71.71
65995;HTU21D;52764;51.036;5.852;2023-01-13T08:49:34;1.41;71.46
65995;HTU21D;52764;51.036;5.852;2023-01-13T08:51:59;9.56;71.28
65995;HTU21D;52764;51.036;5.852;2023-01-13T08:54:25;10.25;71.41
65995;HTU21D;52764;51.036;5.852;2023-01-13T08:56:51;10.23;71.32
65995;HTU21D;52764;51.036;5.852;2023-01-13T08:59:18;10.27;71.29
65995;HTU21D;52764;51.036;5.852;2023-01-13T09:01:44;10.27;71.18
65995;HTU21D;52764;51.036;5.852;2023-01-13T09:04:20;10.29;71.17
65995;HTU21D;52764;51.036;5.852;2023-01-13T09:06:48;10.31;71.13
65995;HTU21D;52764;51.036;5.852;2023-01-13T09:09:14;10.35;70.91
65995;HTU21D;52764;51.036;5.852;2023-01-13T09:11:48;10.37;71.01
65995;HTU21D;52764;51.036;5.852;2023-01-13T09:14:35;10.45;70.92
65995;HTU21D;52764;51.036;5.852;2023-01-13T09:17:01;10.55;70.71
65995;HTU21D;52764;51.036;5.852;2023-01-13T09:19:27;10.69;70.29
65995;HTU21D;52764;51.036;5.852;2023-01-13T09:21:56;10.80;70.03
65995;HTU21D;52764;51.036;5.852;2023-01-13T09:24:22;10.89;69.51
65995;HTU21D;52764;51.036;5.852;2023-01-13T09:26:48;10.84;69.46
65995;HTU21D;52764;51.036;5.852;2023-01-13T09:29:14;10.85;69.28
65995;HTU21D;52764;51.036;5.852;2023-01-13T09:31:41;10.83;69.28
65995;HTU21D;52764;51.036;5.852;2023-01-13T09:34:13;10.79;69.42
65995;HTU21D;52764;51.036;5.852;2023-01-13T09:36:59;10.81;69.83
65995;HTU21D;52764;51.036;5.852;2023-01-13T09:39:24;10.89;69.85
65995;HTU21D;52764;51.036;5.852;2023-01-13T09:41:54;11.01;69.36
65995;HTU21D;52764;51.036;5.852;2023-01-13T09:45:07;11.14;69.02
65995;HTU21D;52764;51.036;5.852;2023-01-13T09:52:59;11.28;67.81
65995;HTU21D;52764;51.036;5.852;2023-01-13T09:55:33;11.27;67.63
65995;HTU21D;52764;51.036;5.852;2023-01-13T09:58:10;11.26;67.59
65995;HTU21D;52764;51.036;5.852;2023-01-13T10:00:47;11.25;67.78
65995;HTU21D;52764;51.036;5.852;2023-01-13T10:03:27;11.28;67.91
65995;HTU21D;52764;51.036;5.852;2023-01-13T10:08:28;11.40;67.27
65995;HTU21D;52764;51.036;5.852;2023-01-13T10:10:59;11.40;67.43
65995;HTU21D;52764;51.036;5.852;2023-01-13T10:13:51;11.43;67.17
65995;HTU21D;52764;51.036;5.852;2023-01-13T10:16:40;11.45;66.74
65995;HTU21D;52764;51.036;5.852;2023-01-13T10:19:24;11.49;66.97
65995;HTU21D;52764;51.036;5.852;2023-01-13T10:27:38;11.89;66.08
65995;HTU21D;52764;51.036;5.852;2023-01-13T10:30:35;11.94;65.66
65995;HTU21D;52764;51.036;5.852;2023-01-13T10:38:35;12.12;64.93
65995;HTU21D;52764;51.036;5.852;2023-01-13T10:43:43;12.12;64.45
65995;HTU21D;52764;51.036;5.852;2023-01-13T10:46:12;12.10;64.40
65995;HTU21D;52764;51.036;5.852;2023-01-13T10:56:41;12.17;63.77
65995;HTU21D;52764;51.036;5.852;2023-01-13T10:59:21;12.21;63.65
65995;HTU21D;52764;51.036;5.852;2023-01-13T11:02:27;12.18;63.40
65995;HTU21D;52764;51.036;5.852;2023-01-13T11:05:01;12.16;63.03
65995;HTU21D;52764;51.036;5.852;2023-01-13T11:08:00;12.13;63.15
65995;HTU21D;52764;51.036;5.852;2023-01-13T11:10:28;12.07;63.27
65995;HTU21D;52764;51.036;5.852;2023-01-13T11:13:07;12.10;63.61
65995;HTU21D;52764;51.036;5.852;2023-01-13T11:21:57;12.17;63.56
65995;HTU21D;52764;51.036;5.852;2023-01-13T11:24:30;12.14;62.31
65995;HTU21D;52764;51.036;5.852;2023-01-13T11:27:13;12.15;63.66
65995;HTU21D;52764;51.036;5.852;2023-01-13T11:29:49;12.17;63.79
65995;HTU21D;52764;51.036;5.852;2023-01-13T11:32:21;12.21;63.69
65995;HTU21D;52764;51.036;5.852;2023-01-13T11:34:53;12.22;63.76
65995;HTU21D;52764;51.036;5.852;2023-01-13T11:37:25;12.21;63.82
65995;HTU21D;52764;51.036;5.852;2023-01-13T11:40:15;12.21;63.70
65995;HTU21D;52764;51.036;5.852;2023-01-13T11:45:40;11.30;63.48
65995;HTU21D;52764;51.036;5.852;2023-01-13T11:48:14;12.50;63.40
65995;HTU21D;52764;51.036;5.852;2023-01-13T11:50:48;12.42;63.86
65995;HTU21D;52764;51.036;5.852;2023-01-13T11:56:17;12.26;64.59
65995;HTU21D;52764;51.036;5.852;2023-01-13T12:21:34;11.69;84.07
65995;HTU21D;52764;51.036;5.852;2023-01-13T12:24:26;11.73;69.87
65995;HTU21D;52764;51.036;5.852;2023-01-13T12:27:02;11.79;69.98
65995;HTU21D;52764;51.036;5.852;2023-01-13T12:29:35;11.89;69.81
65995;HTU21D;52764;51.036;5.852;2023-01-13T12:32:12;11.99;69.36
65995;HTU21D;52764;51.036;5.852;2023-01-13T12:34:47;12.06;69.02
65995;HTU21D;52764;51.036;5.852;2023-01-13T12:40:04;12.34;68.27
65995;HTU21D;52764;51.036;5.852;2023-01-13T12:45:47;12.31;62.35
65995;HTU21D;52764;51.036;5.852;2023-01-13T12:53:52;11.98;68.13
65995;HTU21D;52764;51.036;5.852;2023-01-13T13:01:46;11.51;71.19
65995;HTU21D;52764;51.036;5.852;2023-01-13T13:04:16;11.36;72.22
65995;HTU21D;52764;51.036;5.852;2023-01-13T13:06:50;11.28;72.96
65995;HTU21D;52764;51.036;5.852;2023-01-13T13:09:36;11.13;73.64
65995;HTU21D;52764;51.036;5.852;2023-01-13T13:15:40;11.04;74.56
65995;HTU21D;52764;51.036;5.852;2023-01-13T13:20:52;11.11;74.08
65995;HTU21D;52764;51.036;5.852;2023-01-13T13:26:09;11.20;73.65
65995;HTU21D;52764;51.036;5.852;2023-01-13T13:38:06;11.55;72.44
65995;HTU21D;52764;51.036;5.852;2023-01-13T13:40:45;11.13;72.13
65995;HTU21D;52764;51.036;5.852;2023-01-13T13:43:38;11.69;72.24
65995;HTU21D;52764;51.036;5.852;2023-01-13T13:46:29;11.73;72.38
65995;HTU21D;52764;51.036;5.852;2023-01-13T13:49:20;11.75;72.38
65995;HTU21D;52764;51.036;5.852;2023-01-13T13:52:11;11.81;72.19
65995;HTU21D;52764;51.036;5.852;2023-01-13T13:54:45;11.77;72.01
65995;HTU21D;52764;51.036;5.852;2023-01-13T13:57:33;11.68;72.43
65995;HTU21D;52764;51.036;5.852;2023-01-13T14:00:50;11.58;72.77
65995;HTU21D;52764;51.036;5.852;2023-01-13T14:03:24;11.51;73.38
65995;HTU21D;52764;51.036;5.852;2023-01-13T14:08:22;11.28;74.18
65995;HTU21D;52764;51.036;5.852;2023-01-13T14:10:49;11.22;74.63
65995;HTU21D;52764;51.036;5.852;2023-01-13T14:13:29;11.15;74.96
65995;HTU21D;52764;51.036;5.852;2023-01-13T14:15:58;11.09;75.26
65995;HTU21D;52764;51.036;5.852;2023-01-13T14:18:25;11.07;75.56
65995;HTU21D;52764;51.036;5.852;2023-01-13T14:20:54;11.03;75.54
65995;HTU21D;52764;51.036;5.852;2023-01-13T14:23:27;11.01;75.88
65995;HTU21D;52764;51.036;5.852;2023-01-13T14:25:54;11.04;76.23
65995;HTU21D;52764;51.036;5.852;2023-01-13T14:28:33;11.04;76.34
65995;HTU21D;52764;51.036;5.852;2023-01-13T14:30:59;3.24;76.24
65995;HTU21D;52764;51.036;5.852;2023-01-13T14:33:45;11.16;75.89
65995;HTU21D;52764;51.036;5.852;2023-01-13T14:44:28;11.44;74.86
65995;HTU21D;52764;51.036;5.852;2023-01-13T14:46:57;11.44;74.57
65995;HTU21D;52764;51.036;5.852;2023-01-13T14:49:30;11.44;76.98
65995;HTU21D;52764;51.036;5.852;2023-01-13T14:57:30;11.05;74.14
65995;HTU21D;52764;51.036;5.852;2023-01-13T15:13:42;10.57;77.62
65995;HTU21D;52764;51.036;5.852;2023-01-13T15:16:16;10.54;78.11
65995;HTU21D;52764;51.036;5.852;2023-01-13T15:18:42;10.58;78.47
65995;HTU21D;52764;51.036;5.852;2023-01-13T15:21:09;10.64;78.79
65995;HTU21D;52764;51.036;5.852;2023-01-13T15:23:36;10.72;78.89
65995;HTU21D;52764;51.036;5.852;2023-01-13T15:26:02;10.80;78.69
65995;HTU21D;52764;51.036;5.852;2023-01-13T15:28:28;10.85;78.71
65995;HTU21D;52764;51.036;5.852;2023-01-13T15:30:56;10.93;78.78
65995;HTU21D;52764;51.036;5.852;2023-01-13T15:33:28;11.04;78.66
65995;HTU21D;52764;51.036;5.852;2023-01-13T15:35:54;11.10;78.37
65995;HTU21D;52764;51.036;5.852;2023-01-13T15:38:22;11.49;78.29
65995;HTU21D;52764;51.036;5.852;2023-01-13T15:40:50;11.20;78.11
65995;HTU21D;52764;51.036;5.852;2023-01-13T15:43:20;11.25;78.09
65995;HTU21D;52764;51.036;5.852;2023-01-13T15:46:13;11.29;77.98
65995;HTU21D;52764;51.036;5.852;2023-01-13T15:49:02;11.32;77.75
65995;HTU21D;52764;51.036;5.852;2023-01-13T15:51:35;11.36;77.58
65995;HTU21D;52764;51.036;5.852;2023-01-13T15:54:01;11.31;77.44
65995;HTU21D;52764;51.036;5.852;2023-01-13T15:56:27;11.30;77.58
65995;HTU21D;52764;51.036;5.852;2023-01-13T15:58:53;11.28;77.50
65995;HTU21D;52764;51.036;5.852;2023-01-13T16:01:20;11.28;77.65
65995;HTU21D;52764;51.036;5.852;2023-01-13T16:03:46;11.28;77.63
65995;HTU21D;52764;51.036;5.852;2023-01-13T16:06:16;11.30;77.48
65995;HTU21D;52764;51.036;5.852;2023-01-13T16:08:42;11.32;77.45
65995;HTU21D;52764;51.036;5.852;2023-01-13T16:11:09;11.28;77.36
65995;HTU21D;52764;51.036;5.852;2023-01-13T16:13:35;11.26;77.05
65995;HTU21D;52764;51.036;5.852;2023-01-13T16:16:02;11.26;76.60
65995;HTU21D;52764;51.036;5.852;2023-01-13T16:18:28;11.19;75.99
65995;HTU21D;52764;51.036;5.852;2023-01-13T16:20:54;11.12;75.89
65995;HTU21D;52764;51.036;5.852;2023-01-13T16:23:22;11.04;75.14
65995;HTU21D;52764;51.036;5.852;2023-01-13T16:25:48;10.99;74.34
65995;HTU21D;52764;51.036;5.852;2023-01-13T16:28:23;10.92;73.95
65995;HTU21D;52764;51.036;5.852;2023-01-13T16:30:49;10.88;73.48
65995;HTU21D;52764;51.036;5.852;2023-01-13T16:33:15;10.89;73.40
65995;HTU21D;52764;51.036;5.852;2023-01-13T16:35:42;10.98;73.25
65995;HTU21D;52764;51.036;5.852;2023-01-13T16:38:17;10.94;72.70
65995;HTU21D;52764;51.036;5.852;2023-01-13T16:40:44;10.96;73.21
65995;HTU21D;52764;51.036;5.852;2023-01-13T16:43:13;10.97;71.94
65995;HTU21D;52764;51.036;5.852;2023-01-13T16:45:39;10.83;71.67
65995;HTU21D;52764;51.036;5.852;2023-01-13T16:48:05;11.01;71.19
65995;HTU21D;52764;51.036;5.852;2023-01-13T16:53:01;11.03;70.03
65995;HTU21D;52764;51.036;5.852;2023-01-13T16:55:27;11.05;69.58
65995;HTU21D;52764;51.036;5.852;2023-01-13T16:57:53;11.07;69.51
65995;HTU21D;52764;51.036;5.852;2023-01-13T17:00:19;9.39;68.85
65995;HTU21D;52764;51.036;5.852;2023-01-13T17:02:46;11.18;68.84
65995;HTU21D;52764;51.036;5.852;2023-01-13T17:05:13;11.23;68.35
65995;HTU21D;52764;51.036;5.852;2023-01-13T17:07:42;11.23;67.81
65995;HTU21D;52764;51.036;5.852;2023-01-13T17:10:18;11.26;67.71
65995;HTU21D;52764;51.036;5.852;2023-01-13T17:12:44;11.31;67.62
65995;HTU21D;52764;51.036;5.852;2023-01-13T17:15:15;11.33;67.36
65995;HTU21D;52764;51.036;5.852;2023-01-13T17:17:43;11.31;78.02
65995;HTU21D;52764;51.036;5.852;2023-01-13T17:20:13;11.29;67.04
65995;HTU21D;52764;51.036;5.852;2023-01-13T17:22:40;11.30;67.10
65995;HTU21D;52764;51.036;5.852;2023-01-13T17:25:07;11.29;66.90
65995;HTU21D;52764;51.036;5.852;2023-01-13T17:27:34;11.28;66.80
65995;HTU21D;52764;51.036;5.852;2023-01-13T17:30:00;11.27;66.53
65995;HTU21D;52764;51.036;5.852;2023-01-13T17:32:26;11.27;67.11
65995;HTU21D;52764;51.036;5.852;2023-01-13T17:34:51;11.27;66.84
65995;HTU21D;52764;51.036;5.852;2023-01-13T17:37:18;11.26;66.85
65995;HTU21D;52764;51.036;5.852;2023-01-13T17:39:44;11.26;66.59
65995;HTU21D;52764;51.036;5.852;2023-01-13T17:42:14;11.25;66.23
65995;HTU21D;52764;51.036;5.852;2023-01-13T17:44:40;11.23;66.57
65995;HTU21D;52764;51.036;5.852;2023-01-13T17:47:06;11.24;66.58
65995;HTU21D;52764;51.036;5.852;2023-01-13T17:49:33;11.25;66.36
65995;HTU21D;52764;51.036;5.852;2023-01-13T17:51:58;11.25;66.18
65995;HTU21D;52764;51.036;5.852;2023-01-13T17:54:24;11.23;66.06
65995;HTU21D;52764;51.036;5.852;2023-01-13T17:56:50;11.26;66.20
65995;HTU21D;52764;51.036;5.852;2023-01-13T17:59:18;11.26;65.95
65995;HTU21D;52764;51.036;5.852;2023-01-13T18:01:44;11.29;65.53
65995;HTU21D;52764;51.036;5.852;2023-01-13T18:04:18;11.32;65.56
65995;HTU21D;52764;51.036;5.852;2023-01-13T18:06:45;11.33;65.40
65995;HTU21D;52764;51.036;5.852;2023-01-13T18:09:11;11.37;65.26
65995;HTU21D;52764;51.036;5.852;2023-01-13T18:11:37;11.32;65.45
65995;HTU21D;52764;51.036;5.852;2023-01-13T18:14:03;11.34;65.46
65995;HTU21D;52764;51.036;5.852;2023-01-13T18:16:30;11.33;65.17